Dell Rapids, South Dakota
Current Conditions -  °F | °C
As of 1:56 AM on Friday 24 Oct 2014 (Local Time) from KFSD Reporting Station
Clear Clear  
Wind Chill: 55°   Ceiling: Unl
Heat Index: 55°   Visibility: 10mi
Dew Point: 49°   Wind: 12mph
Humidity: 80%   Direction: 190°S
Pressure: 29.88"   Gusts: NA
Location:  43.83°N, 96.71°W
Report Text: KFSD 240656Z AUTO 19010KT 10SM CLR 13/09 A2988 RMK AO2 SLP118 T01280094
Loading
Personal Weather Stations






























Interactive Weather Map
Tropical Storm Tracking
New forecast layout! Learn more

10-Day Weather Forecast

Advertisements
Track Severe Weather on mobile